sensor_id;sensor_type;location;lat;lon;timestamp;temperature;humidity
84008;DHT22;74070;50.948;6.954;2023-12-28T00:00:45;10.10;99.90
84008;DHT22;74070;50.948;6.954;2023-12-28T00:03:12;10.00;99.90
84008;DHT22;74070;50.948;6.954;2023-12-28T00:05:38;10.00;99.90
84008;DHT22;74070;50.948;6.954;2023-12-28T00:08:05;9.90;99.90
84008;DHT22;74070;50.948;6.954;2023-12-28T00:10:31;9.90;99.90
84008;DHT22;74070;50.948;6.954;2023-12-28T00:12:58;9.80;99.90
84008;DHT22;74070;50.948;6.954;2023-12-28T00:15:25;9.80;99.90
84008;DHT22;74070;50.948;6.954;2023-12-28T00:17:51;9.80;99.90
84008;DHT22;74070;50.948;6.954;2023-12-28T00:20:18;9.80;99.90
84008;DHT22;74070;50.948;6.954;2023-12-28T00:22:44;9.90;99.90
84008;DHT22;74070;50.948;6.954;2023-12-28T00:25:11;10.00;99.90
84008;DHT22;74070;50.948;6.954;2023-12-28T00:27:38;10.00;99.90
84008;DHT22;74070;50.948;6.954;2023-12-28T00:30:05;9.90;99.90
84008;DHT22;74070;50.948;6.954;2023-12-28T00:32:32;9.90;99.90
84008;DHT22;74070;50.948;6.954;2023-12-28T00:34:58;9.90;99.90
84008;DHT22;74070;50.948;6.954;2023-12-28T00:37:25;9.90;99.90
84008;DHT22;74070;50.948;6.954;2023-12-28T00:39:51;9.90;99.90
84008;DHT22;74070;50.948;6.954;2023-12-28T00:42:18;9.90;99.90
84008;DHT22;74070;50.948;6.954;2023-12-28T00:44:45;9.90;99.90
84008;DHT22;74070;50.948;6.954;2023-12-28T00:47:11;10.00;99.90
84008;DHT22;74070;50.948;6.954;2023-12-28T00:49:38;10.00;99.90
84008;DHT22;74070;50.948;6.954;2023-12-28T00:52:05;10.00;99.90
84008;DHT22;74070;50.948;6.954;2023-12-28T00:54:31;10.00;99.90
84008;DHT22;74070;50.948;6.954;2023-12-28T00:56:58;10.00;99.90
84008;DHT22;74070;50.948;6.954;2023-12-28T00:59:24;10.00;99.90
84008;DHT22;74070;50.948;6.954;2023-12-28T01:01:51;10.00;99.90
84008;DHT22;74070;50.948;6.954;2023-12-28T01:04:18;10.00;99.90
84008;DHT22;74070;50.948;6.954;2023-12-28T01:06:45;10.10;99.90
84008;DHT22;74070;50.948;6.954;2023-12-28T01:09:12;10.10;99.90
84008;DHT22;74070;50.948;6.954;2023-12-28T01:11:40;10.10;99.90
84008;DHT22;74070;50.948;6.954;2023-12-28T01:14:07;10.10;99.90
84008;DHT22;74070;50.948;6.954;2023-12-28T01:16:34;10.10;99.90
84008;DHT22;74070;50.948;6.954;2023-12-28T01:19:02;10.10;99.90
84008;DHT22;74070;50.948;6.954;2023-12-28T01:21:28;10.00;99.90
84008;DHT22;74070;50.948;6.954;2023-12-28T01:23:55;10.10;99.90
84008;DHT22;74070;50.948;6.954;2023-12-28T01:26:21;10.10;99.90
84008;DHT22;74070;50.948;6.954;2023-12-28T01:28:48;10.00;99.90
84008;DHT22;74070;50.948;6.954;2023-12-28T01:31:15;10.00;99.90
84008;DHT22;74070;50.948;6.954;2023-12-28T01:33:41;10.00;99.90
84008;DHT22;74070;50.948;6.954;2023-12-28T01:36:17;10.00;99.90
84008;DHT22;74070;50.948;6.954;2023-12-28T01:38:43;9.90;99.90
84008;DHT22;74070;50.948;6.954;2023-12-28T01:41:10;9.90;99.90
84008;DHT22;74070;50.948;6.954;2023-12-28T01:43:37;9.90;99.90
84008;DHT22;74070;50.948;6.954;2023-12-28T01:46:05;9.90;99.90
84008;DHT22;74070;50.948;6.954;2023-12-28T01:48:31;9.80;99.90
84008;DHT22;74070;50.948;6.954;2023-12-28T01:50:58;9.90;99.90
84008;DHT22;74070;50.948;6.954;2023-12-28T01:53:25;9.90;99.90
84008;DHT22;74070;50.948;6.954;2023-12-28T01:55:52;9.90;99.90
84008;DHT22;74070;50.948;6.954;2023-12-28T01:58:20;9.80;99.90
84008;DHT22;74070;50.948;6.954;2023-12-28T02:00:47;9.80;99.90
84008;DHT22;74070;50.948;6.954;2023-12-28T02:03:14;9.80;99.90
84008;DHT22;74070;50.948;6.954;2023-12-28T02:05:42;9.80;99.90
84008;DHT22;74070;50.948;6.954;2023-12-28T02:08:09;9.80;99.90
84008;DHT22;74070;50.948;6.954;2023-12-28T02:10:38;9.80;99.90
84008;DHT22;74070;50.948;6.954;2023-12-28T02:13:03;9.80;99.90
84008;DHT22;74070;50.948;6.954;2023-12-28T02:15:30;9.80;99.90
84008;DHT22;74070;50.948;6.954;2023-12-28T02:18:04;9.80;99.90
84008;DHT22;74070;50.948;6.954;2023-12-28T02:20:29;9.90;99.90
84008;DHT22;74070;50.948;6.954;2023-12-28T02:22:56;9.90;99.90
84008;DHT22;74070;50.948;6.954;2023-12-28T02:25:22;9.80;99.90
84008;DHT22;74070;50.948;6.954;2023-12-28T02:27:49;9.90;99.90
84008;DHT22;74070;50.948;6.954;2023-12-28T02:30:16;9.90;99.90
84008;DHT22;74070;50.948;6.954;2023-12-28T02:32:47;9.90;99.90
84008;DHT22;74070;50.948;6.954;2023-12-28T02:35:33;9.90;99.90
84008;DHT22;74070;50.948;6.954;2023-12-28T02:38:00;9.80;99.90
84008;DHT22;74070;50.948;6.954;2023-12-28T02:40:25;9.90;99.90
84008;DHT22;74070;50.948;6.954;2023-12-28T02:42:53;9.90;99.90
84008;DHT22;74070;50.948;6.954;2023-12-28T02:45:20;9.90;99.90
84008;DHT22;74070;50.948;6.954;2023-12-28T02:47:47;9.90;99.90
84008;DHT22;74070;50.948;6.954;2023-12-28T02:50:13;9.90;99.90
84008;DHT22;74070;50.948;6.954;2023-12-28T02:52:41;9.90;99.90
84008;DHT22;74070;50.948;6.954;2023-12-28T02:55:08;10.00;99.90
84008;DHT22;74070;50.948;6.954;2023-12-28T02:57:34;9.90;99.90
84008;DHT22;74070;50.948;6.954;2023-12-28T03:00:01;10.00;99.90
84008;DHT22;74070;50.948;6.954;2023-12-28T03:02:28;9.90;99.90
84008;DHT22;74070;50.948;6.954;2023-12-28T03:04:55;10.00;99.90
84008;DHT22;74070;50.948;6.954;2023-12-28T03:07:22;9.90;99.90
84008;DHT22;74070;50.948;6.954;2023-12-28T03:09:49;9.90;99.90
84008;DHT22;74070;50.948;6.954;2023-12-28T03:12:16;9.90;99.90
84008;DHT22;74070;50.948;6.954;2023-12-28T03:14:42;9.90;99.90
84008;DHT22;74070;50.948;6.954;2023-12-28T03:17:09;9.90;99.90
84008;DHT22;74070;50.948;6.954;2023-12-28T03:19:36;9.90;99.90
84008;DHT22;74070;50.948;6.954;2023-12-28T03:22:03;9.90;99.90
84008;DHT22;74070;50.948;6.954;2023-12-28T03:24:31;9.90;99.90
84008;DHT22;74070;50.948;6.954;2023-12-28T03:26:58;9.90;99.90
84008;DHT22;74070;50.948;6.954;2023-12-28T03:29:26;9.80;99.90
84008;DHT22;74070;50.948;6.954;2023-12-28T03:31:53;9.80;99.90
84008;DHT22;74070;50.948;6.954;2023-12-28T03:34:20;9.80;99.90
84008;DHT22;74070;50.948;6.954;2023-12-28T03:36:48;9.80;99.90
84008;DHT22;74070;50.948;6.954;2023-12-28T03:39:14;9.70;99.90
84008;DHT22;74070;50.948;6.954;2023-12-28T03:41:41;9.80;99.90
84008;DHT22;74070;50.948;6.954;2023-12-28T03:44:08;9.40;99.90
84008;DHT22;74070;50.948;6.954;2023-12-28T03:46:35;9.70;99.90
84008;DHT22;74070;50.948;6.954;2023-12-28T03:49:01;9.70;99.90
84008;DHT22;74070;50.948;6.954;2023-12-28T03:51:29;9.50;99.90
84008;DHT22;74070;50.948;6.954;2023-12-28T03:53:56;9.50;99.90
84008;DHT22;74070;50.948;6.954;2023-12-28T03:56:24;9.60;99.90
84008;DHT22;74070;50.948;6.954;2023-12-28T03:58:51;9.60;99.90
84008;DHT22;74070;50.948;6.954;2023-12-28T04:01:20;9.50;99.90
84008;DHT22;74070;50.948;6.954;2023-12-28T04:03:47;9.50;99.90
84008;DHT22;74070;50.948;6.954;2023-12-28T04:06:14;9.50;99.90
84008;DHT22;74070;50.948;6.954;2023-12-28T04:08:41;9.40;99.90
84008;DHT22;74070;50.948;6.954;2023-12-28T04:11:09;9.30;99.90
84008;DHT22;74070;50.948;6.954;2023-12-28T04:13:36;9.20;99.90
84008;DHT22;74070;50.948;6.954;2023-12-28T04:16:03;9.20;99.90
84008;DHT22;74070;50.948;6.954;2023-12-28T04:18:30;9.10;99.90
84008;DHT22;74070;50.948;6.954;2023-12-28T04:20:57;9.20;99.90
84008;DHT22;74070;50.948;6.954;2023-12-28T04:23:23;9.10;99.90
84008;DHT22;74070;50.948;6.954;2023-12-28T04:25:50;9.00;99.90
84008;DHT22;74070;50.948;6.954;2023-12-28T04:28:16;9.00;99.90
84008;DHT22;74070;50.948;6.954;2023-12-28T04:30:43;9.00;99.90
84008;DHT22;74070;50.948;6.954;2023-12-28T04:33:09;9.00;99.90
84008;DHT22;74070;50.948;6.954;2023-12-28T04:35:36;9.00;99.90
84008;DHT22;74070;50.948;6.954;2023-12-28T04:38:03;9.00;99.90
84008;DHT22;74070;50.948;6.954;2023-12-28T04:40:29;9.00;99.90
84008;DHT22;74070;50.948;6.954;2023-12-28T04:42:56;9.00;99.90
84008;DHT22;74070;50.948;6.954;2023-12-28T04:45:22;9.00;99.90
84008;DHT22;74070;50.948;6.954;2023-12-28T04:47:49;9.00;99.90
84008;DHT22;74070;50.948;6.954;2023-12-28T04:50:16;9.00;99.90
84008;DHT22;74070;50.948;6.954;2023-12-28T04:52:43;9.00;99.90
84008;DHT22;74070;50.948;6.954;2023-12-28T04:55:10;9.00;99.90
84008;DHT22;74070;50.948;6.954;2023-12-28T04:57:38;9.00;99.90
84008;DHT22;74070;50.948;6.954;2023-12-28T05:00:05;9.00;99.90
84008;DHT22;74070;50.948;6.954;2023-12-28T05:02:32;9.00;99.90
84008;DHT22;74070;50.948;6.954;2023-12-28T05:04:59;8.90;99.90
84008;DHT22;74070;50.948;6.954;2023-12-28T05:07:26;8.80;99.90
84008;DHT22;74070;50.948;6.954;2023-12-28T05:09:54;8.70;99.90
84008;DHT22;74070;50.948;6.954;2023-12-28T05:12:21;8.80;99.90
84008;DHT22;74070;50.948;6.954;2023-12-28T05:14:48;8.70;99.90
84008;DHT22;74070;50.948;6.954;2023-12-28T05:17:16;8.70;99.90
84008;DHT22;74070;50.948;6.954;2023-12-28T05:19:43;8.70;99.90
84008;DHT22;74070;50.948;6.954;2023-12-28T05:22:10;8.70;99.90
84008;DHT22;74070;50.948;6.954;2023-12-28T05:24:36;8.80;99.90
84008;DHT22;74070;50.948;6.954;2023-12-28T05:27:04;8.70;99.90
84008;DHT22;74070;50.948;6.954;2023-12-28T05:29:30;8.70;99.90
84008;DHT22;74070;50.948;6.954;2023-12-28T05:31:57;8.70;99.90
84008;DHT22;74070;50.948;6.954;2023-12-28T05:34:23;8.70;99.90
84008;DHT22;74070;50.948;6.954;2023-12-28T05:36:50;8.60;99.90
84008;DHT22;74070;50.948;6.954;2023-12-28T05:39:17;8.60;99.90
84008;DHT22;74070;50.948;6.954;2023-12-28T05:41:43;8.50;99.90
84008;DHT22;74070;50.948;6.954;2023-12-28T05:44:10;8.50;99.90
84008;DHT22;74070;50.948;6.954;2023-12-28T05:46:36;8.60;99.90
84008;DHT22;74070;50.948;6.954;2023-12-28T05:49:03;8.50;99.90
84008;DHT22;74070;50.948;6.954;2023-12-28T05:51:30;8.50;99.90
84008;DHT22;74070;50.948;6.954;2023-12-28T05:53:57;8.50;99.90
84008;DHT22;74070;50.948;6.954;2023-12-28T05:56:24;8.50;99.90
84008;DHT22;74070;50.948;6.954;2023-12-28T05:58:52;8.50;99.90
84008;DHT22;74070;50.948;6.954;2023-12-28T06:01:19;8.60;99.90
84008;DHT22;74070;50.948;6.954;2023-12-28T06:03:46;8.50;99.90
84008;DHT22;74070;50.948;6.954;2023-12-28T06:06:12;8.50;99.90
84008;DHT22;74070;50.948;6.954;2023-12-28T06:08:39;8.60;99.90
84008;DHT22;74070;50.948;6.954;2023-12-28T06:11:05;8.70;99.90
84008;DHT22;74070;50.948;6.954;2023-12-28T06:13:33;8.70;99.90
84008;DHT22;74070;50.948;6.954;2023-12-28T06:16:00;8.70;99.90
84008;DHT22;74070;50.948;6.954;2023-12-28T06:18:27;8.80;99.90
84008;DHT22;74070;50.948;6.954;2023-12-28T06:20:54;8.70;99.90
84008;DHT22;74070;50.948;6.954;2023-12-28T06:23:21;8.90;99.90
84008;DHT22;74070;50.948;6.954;2023-12-28T06:25:47;9.00;99.90
84008;DHT22;74070;50.948;6.954;2023-12-28T06:28:14;9.00;99.90
84008;DHT22;74070;50.948;6.954;2023-12-28T06:30:41;9.00;99.90
84008;DHT22;74070;50.948;6.954;2023-12-28T06:33:08;8.90;99.90
84008;DHT22;74070;50.948;6.954;2023-12-28T06:35:34;9.00;99.90
84008;DHT22;74070;50.948;6.954;2023-12-28T06:38:02;9.00;99.90
84008;DHT22;74070;50.948;6.954;2023-12-28T06:40:28;9.00;99.90
84008;DHT22;74070;50.948;6.954;2023-12-28T06:42:55;9.00;99.90
84008;DHT22;74070;50.948;6.954;2023-12-28T06:45:22;9.00;99.90
84008;DHT22;74070;50.948;6.954;2023-12-28T06:47:48;8.90;99.90
84008;DHT22;74070;50.948;6.954;2023-12-28T06:50:15;8.90;99.90
84008;DHT22;74070;50.948;6.954;2023-12-28T06:52:41;9.00;99.90
84008;DHT22;74070;50.948;6.954;2023-12-28T06:55:08;8.90;99.90
84008;DHT22;74070;50.948;6.954;2023-12-28T06:57:35;9.00;99.90
84008;DHT22;74070;50.948;6.954;2023-12-28T07:00:02;9.00;99.90
84008;DHT22;74070;50.948;6.954;2023-12-28T07:02:29;9.10;99.90
84008;DHT22;74070;50.948;6.954;2023-12-28T07:04:55;9.20;99.90
84008;DHT22;74070;50.948;6.954;2023-12-28T07:07:22;9.20;99.90
84008;DHT22;74070;50.948;6.954;2023-12-28T07:09:48;9.30;99.90
84008;DHT22;74070;50.948;6.954;2023-12-28T07:12:15;9.40;99.90
84008;DHT22;74070;50.948;6.954;2023-12-28T07:14:42;9.40;99.90
84008;DHT22;74070;50.948;6.954;2023-12-28T07:17:08;9.50;99.90
84008;DHT22;74070;50.948;6.954;2023-12-28T07:19:35;9.50;99.90
84008;DHT22;74070;50.948;6.954;2023-12-28T07:22:01;9.60;99.90
84008;DHT22;74070;50.948;6.954;2023-12-28T07:24:28;9.50;99.90
84008;DHT22;74070;50.948;6.954;2023-12-28T07:26:54;9.50;99.90
84008;DHT22;74070;50.948;6.954;2023-12-28T07:29:21;9.50;99.90
84008;DHT22;74070;50.948;6.954;2023-12-28T07:31:48;9.50;99.90
84008;DHT22;74070;50.948;6.954;2023-12-28T07:34:15;9.40;99.90
84008;DHT22;74070;50.948;6.954;2023-12-28T07:36:42;9.30;99.90
84008;DHT22;74070;50.948;6.954;2023-12-28T07:39:10;9.20;99.90
84008;DHT22;74070;50.948;6.954;2023-12-28T07:41:37;9.20;99.90
84008;DHT22;74070;50.948;6.954;2023-12-28T07:44:04;9.30;99.90
84008;DHT22;74070;50.948;6.954;2023-12-28T07:46:31;9.20;99.90
84008;DHT22;74070;50.948;6.954;2023-12-28T07:48:58;9.30;99.90
84008;DHT22;74070;50.948;6.954;2023-12-28T07:51:25;9.40;99.90
84008;DHT22;74070;50.948;6.954;2023-12-28T07:53:52;9.40;99.90
84008;DHT22;74070;50.948;6.954;2023-12-28T07:56:20;9.40;99.90
84008;DHT22;74070;50.948;6.954;2023-12-28T07:58:47;9.40;99.90
84008;DHT22;74070;50.948;6.954;2023-12-28T08:01:14;9.30;99.90
84008;DHT22;74070;50.948;6.954;2023-12-28T08:03:40;9.40;99.90
84008;DHT22;74070;50.948;6.954;2023-12-28T08:06:08;9.50;99.90
84008;DHT22;74070;50.948;6.954;2023-12-28T08:08:34;9.40;99.90
84008;DHT22;74070;50.948;6.954;2023-12-28T08:11:01;9.50;99.90
84008;DHT22;74070;50.948;6.954;2023-12-28T08:13:27;9.50;99.90
84008;DHT22;74070;50.948;6.954;2023-12-28T08:15:54;9.60;99.90
84008;DHT22;74070;50.948;6.954;2023-12-28T08:18:21;9.60;99.90
84008;DHT22;74070;50.948;6.954;2023-12-28T08:20:48;9.60;99.90
84008;DHT22;74070;50.948;6.954;2023-12-28T08:23:14;9.60;99.90
84008;DHT22;74070;50.948;6.954;2023-12-28T08:25:41;9.70;99.90
84008;DHT22;74070;50.948;6.954;2023-12-28T08:28:08;9.70;99.90
84008;DHT22;74070;50.948;6.954;2023-12-28T08:30:34;9.80;99.90
84008;DHT22;74070;50.948;6.954;2023-12-28T08:33:01;9.90;99.90
84008;DHT22;74070;50.948;6.954;2023-12-28T08:35:27;9.90;99.90
84008;DHT22;74070;50.948;6.954;2023-12-28T08:37:54;9.90;99.90
84008;DHT22;74070;50.948;6.954;2023-12-28T08:40:21;9.90;99.90
84008;DHT22;74070;50.948;6.954;2023-12-28T08:42:47;10.00;99.90
84008;DHT22;74070;50.948;6.954;2023-12-28T08:45:14;10.00;99.90
84008;DHT22;74070;50.948;6.954;2023-12-28T08:47:40;10.00;99.90
84008;DHT22;74070;50.948;6.954;2023-12-28T08:50:07;10.00;99.90
84008;DHT22;74070;50.948;6.954;2023-12-28T08:52:34;10.10;99.90
84008;DHT22;74070;50.948;6.954;2023-12-28T08:55:00;10.10;99.90
84008;DHT22;74070;50.948;6.954;2023-12-28T08:57:27;10.70;99.90
84008;DHT22;74070;50.948;6.954;2023-12-28T08:59:54;10.20;99.90
84008;DHT22;74070;50.948;6.954;2023-12-28T09:02:20;10.30;99.90
84008;DHT22;74070;50.948;6.954;2023-12-28T09:04:47;10.30;99.90
84008;DHT22;74070;50.948;6.954;2023-12-28T09:07:14;10.40;99.90
84008;DHT22;74070;50.948;6.954;2023-12-28T09:09:42;10.40;99.90
84008;DHT22;74070;50.948;6.954;2023-12-28T09:12:09;10.40;99.90
84008;DHT22;74070;50.948;6.954;2023-12-28T09:14:36;10.50;99.90
84008;DHT22;74070;50.948;6.954;2023-12-28T09:17:04;10.50;99.90
84008;DHT22;74070;50.948;6.954;2023-12-28T09:19:30;10.50;99.90
84008;DHT22;74070;50.948;6.954;2023-12-28T09:21:57;10.60;99.90
84008;DHT22;74070;50.948;6.954;2023-12-28T09:24:23;10.60;99.90
84008;DHT22;74070;50.948;6.954;2023-12-28T09:26:50;10.70;99.90
84008;DHT22;74070;50.948;6.954;2023-12-28T09:29:17;10.70;99.90
84008;DHT22;74070;50.948;6.954;2023-12-28T09:31:43;10.80;99.90
84008;DHT22;74070;50.948;6.954;2023-12-28T09:34:10;10.80;99.90
84008;DHT22;74070;50.948;6.954;2023-12-28T09:36:36;10.90;99.90
84008;DHT22;74070;50.948;6.954;2023-12-28T09:39:03;10.90;99.90
84008;DHT22;74070;50.948;6.954;2023-12-28T09:41:30;11.10;99.90
84008;DHT22;74070;50.948;6.954;2023-12-28T09:44:05;11.00;99.90
84008;DHT22;74070;50.948;6.954;2023-12-28T09:46:30;11.20;99.90
84008;DHT22;74070;50.948;6.954;2023-12-28T09:48:57;11.10;99.90
84008;DHT22;74070;50.948;6.954;2023-12-28T09:51:23;11.30;99.90
84008;DHT22;74070;50.948;6.954;2023-12-28T09:53:50;11.30;99.90
84008;DHT22;74070;50.948;6.954;2023-12-28T09:56:16;11.40;99.90
84008;DHT22;74070;50.948;6.954;2023-12-28T09:58:43;11.50;99.90
84008;DHT22;74070;50.948;6.954;2023-12-28T10:01:10;11.60;99.90
84008;DHT22;74070;50.948;6.954;2023-12-28T10:03:36;11.60;99.90
84008;DHT22;74070;50.948;6.954;2023-12-28T10:06:04;11.70;99.90
84008;DHT22;74070;50.948;6.954;2023-12-28T10:08:30;11.60;99.90
84008;DHT22;74070;50.948;6.954;2023-12-28T10:10:57;11.80;99.90
84008;DHT22;74070;50.948;6.954;2023-12-28T10:13:24;11.90;99.90
84008;DHT22;74070;50.948;6.954;2023-12-28T10:15:51;12.10;99.90
84008;DHT22;74070;50.948;6.954;2023-12-28T10:18:18;12.10;99.90
84008;DHT22;74070;50.948;6.954;2023-12-28T10:20:53;12.10;99.90
84008;DHT22;74070;50.948;6.954;2023-12-28T10:23:19;12.20;99.90
84008;DHT22;74070;50.948;6.954;2023-12-28T10:25:46;12.20;99.90
84008;DHT22;74070;50.948;6.954;2023-12-28T10:28:12;12.30;99.90
84008;DHT22;74070;50.948;6.954;2023-12-28T10:30:39;12.40;99.90
84008;DHT22;74070;50.948;6.954;2023-12-28T10:33:07;12.40;99.90
84008;DHT22;74070;50.948;6.954;2023-12-28T10:35:34;12.40;99.90
84008;DHT22;74070;50.948;6.954;2023-12-28T10:38:01;12.40;99.90
84008;DHT22;74070;50.948;6.954;2023-12-28T10:40:29;12.30;99.90
84008;DHT22;74070;50.948;6.954;2023-12-28T10:42:58;12.40;99.90
84008;DHT22;74070;50.948;6.954;2023-12-28T10:45:25;12.10;99.90
84008;DHT22;74070;50.948;6.954;2023-12-28T10:47:57;12.30;99.90
84008;DHT22;74070;50.948;6.954;2023-12-28T10:50:21;12.20;99.90
84008;DHT22;74070;50.948;6.954;2023-12-28T10:52:49;12.20;99.90
84008;DHT22;74070;50.948;6.954;2023-12-28T10:55:19;12.20;99.90
84008;DHT22;74070;50.948;6.954;2023-12-28T10:58:03;12.20;99.90
84008;DHT22;74070;50.948;6.954;2023-12-28T11:00:26;12.20;99.90
84008;DHT22;74070;50.948;6.954;2023-12-28T11:02:53;12.30;99.90
84008;DHT22;74070;50.948;6.954;2023-12-28T11:05:20;12.30;99.90
84008;DHT22;74070;50.948;6.954;2023-12-28T11:07:48;12.30;99.90
84008;DHT22;74070;50.948;6.954;2023-12-28T11:10:15;12.30;99.90
84008;DHT22;74070;50.948;6.954;2023-12-28T11:12:42;12.40;99.90
84008;DHT22;74070;50.948;6.954;2023-12-28T11:15:09;12.30;99.90
84008;DHT22;74070;50.948;6.954;2023-12-28T11:17:36;12.40;99.90
84008;DHT22;74070;50.948;6.954;2023-12-28T11:20:02;12.50;99.90
84008;DHT22;74070;50.948;6.954;2023-12-28T11:22:29;12.50;99.90
84008;DHT22;74070;50.948;6.954;2023-12-28T11:24:56;12.60;99.90
84008;DHT22;74070;50.948;6.954;2023-12-28T11:27:23;12.70;99.90
84008;DHT22;74070;50.948;6.954;2023-12-28T11:29:51;12.80;99.90
84008;DHT22;74070;50.948;6.954;2023-12-28T11:32:19;12.70;99.90
84008;DHT22;74070;50.948;6.954;2023-12-28T11:34:44;12.80;99.90
84008;DHT22;74070;50.948;6.954;2023-12-28T11:37:14;12.80;99.90
84008;DHT22;74070;50.948;6.954;2023-12-28T11:39:41;12.80;99.90
84008;DHT22;74070;50.948;6.954;2023-12-28T11:42:07;12.80;99.90
84008;DHT22;74070;50.948;6.954;2023-12-28T11:44:37;12.80;99.90
84008;DHT22;74070;50.948;6.954;2023-12-28T11:47:11;12.80;99.90
84008;DHT22;74070;50.948;6.954;2023-12-28T11:49:37;12.80;99.90
84008;DHT22;74070;50.948;6.954;2023-12-28T11:52:05;13.00;99.90
84008;DHT22;74070;50.948;6.954;2023-12-28T11:54:32;12.90;99.90
84008;DHT22;74070;50.948;6.954;2023-12-28T11:56:59;13.20;99.90
84008;DHT22;74070;50.948;6.954;2023-12-28T11:59:26;13.20;99.90
84008;DHT22;74070;50.948;6.954;2023-12-28T12:01:53;13.30;99.90
84008;DHT22;74070;50.948;6.954;2023-12-28T12:04:20;13.20;99.90
84008;DHT22;74070;50.948;6.954;2023-12-28T12:06:47;13.20;99.90
84008;DHT22;74070;50.948;6.954;2023-12-28T12:09:14;13.20;99.90
84008;DHT22;74070;50.948;6.954;2023-12-28T12:11:41;13.20;99.90
84008;DHT22;74070;50.948;6.954;2023-12-28T12:14:09;13.20;99.90
84008;DHT22;74070;50.948;6.954;2023-12-28T12:16:36;13.20;99.90
84008;DHT22;74070;50.948;6.954;2023-12-28T12:19:04;13.20;99.90
84008;DHT22;74070;50.948;6.954;2023-12-28T12:21:30;13.20;99.40
84008;DHT22;74070;50.948;6.954;2023-12-28T12:23:57;13.30;99.50
84008;DHT22;74070;50.948;6.954;2023-12-28T12:26:23;13.30;99.30
84008;DHT22;74070;50.948;6.954;2023-12-28T12:28:51;13.30;99.70
84008;DHT22;74070;50.948;6.954;2023-12-28T12:31:19;13.50;99.00
84008;DHT22;74070;50.948;6.954;2023-12-28T12:33:45;13.40;98.90
84008;DHT22;74070;50.948;6.954;2023-12-28T12:36:12;13.70;97.50
84008;DHT22;74070;50.948;6.954;2023-12-28T12:38:38;13.60;96.90
84008;DHT22;74070;50.948;6.954;2023-12-28T12:41:05;13.60;97.50
84008;DHT22;74070;50.948;6.954;2023-12-28T12:43:33;13.60;97.40
84008;DHT22;74070;50.948;6.954;2023-12-28T12:46:00;13.60;97.60
84008;DHT22;74070;50.948;6.954;2023-12-28T12:48:27;13.60;97.60
84008;DHT22;74070;50.948;6.954;2023-12-28T12:50:53;13.60;97.20
84008;DHT22;74070;50.948;6.954;2023-12-28T12:53:20;13.70;97.30
84008;DHT22;74070;50.948;6.954;2023-12-28T12:55:47;13.80;96.70
84008;DHT22;74070;50.948;6.954;2023-12-28T12:58:14;13.50;97.70
84008;DHT22;74070;50.948;6.954;2023-12-28T13:00:41;13.50;97.90
84008;DHT22;74070;50.948;6.954;2023-12-28T13:03:09;13.60;97.60
84008;DHT22;74070;50.948;6.954;2023-12-28T13:05:36;13.60;97.60
84008;DHT22;74070;50.948;6.954;2023-12-28T13:08:04;13.60;97.20
84008;DHT22;74070;50.948;6.954;2023-12-28T13:10:31;13.50;97.20
84008;DHT22;74070;50.948;6.954;2023-12-28T13:12:58;13.40;97.80
84008;DHT22;74070;50.948;6.954;2023-12-28T13:15:25;13.30;98.00
84008;DHT22;74070;50.948;6.954;2023-12-28T13:17:52;13.20;98.30
84008;DHT22;74070;50.948;6.954;2023-12-28T13:20:20;13.10;98.40
84008;DHT22;74070;50.948;6.954;2023-12-28T13:22:47;13.10;98.80
84008;DHT22;74070;50.948;6.954;2023-12-28T13:25:15;13.10;99.20
84008;DHT22;74070;50.948;6.954;2023-12-28T13:27:41;13.00;99.20
84008;DHT22;74070;50.948;6.954;2023-12-28T13:30:08;13.00;98.90
84008;DHT22;74070;50.948;6.954;2023-12-28T13:32:35;13.10;99.20
84008;DHT22;74070;50.948;6.954;2023-12-28T13:35:02;13.00;99.30
84008;DHT22;74070;50.948;6.954;2023-12-28T13:37:29;12.90;99.30
84008;DHT22;74070;50.948;6.954;2023-12-28T13:39:55;13.00;99.40
84008;DHT22;74070;50.948;6.954;2023-12-28T13:42:22;13.10;99.30
84008;DHT22;74070;50.948;6.954;2023-12-28T13:44:49;13.00;99.80
84008;DHT22;74070;50.948;6.954;2023-12-28T13:47:16;13.00;99.80
84008;DHT22;74070;50.948;6.954;2023-12-28T13:49:43;13.00;99.40
84008;DHT22;74070;50.948;6.954;2023-12-28T13:52:09;12.90;99.90
84008;DHT22;74070;50.948;6.954;2023-12-28T13:54:36;12.80;99.90
84008;DHT22;74070;50.948;6.954;2023-12-28T13:57:03;12.80;99.90
84008;DHT22;74070;50.948;6.954;2023-12-28T13:59:29;12.70;99.90
84008;DHT22;74070;50.948;6.954;2023-12-28T14:01:57;12.60;99.90
84008;DHT22;74070;50.948;6.954;2023-12-28T14:04:24;12.50;99.90
84008;DHT22;74070;50.948;6.954;2023-12-28T14:06:51;12.50;99.90
84008;DHT22;74070;50.948;6.954;2023-12-28T14:09:18;12.40;99.90
84008;DHT22;74070;50.948;6.954;2023-12-28T14:11:45;12.40;99.90
84008;DHT22;74070;50.948;6.954;2023-12-28T14:14:11;12.40;99.90
84008;DHT22;74070;50.948;6.954;2023-12-28T14:16:39;12.40;99.90
84008;DHT22;74070;50.948;6.954;2023-12-28T14:19:05;12.30;99.90
84008;DHT22;74070;50.948;6.954;2023-12-28T14:21:36;12.30;99.90
84008;DHT22;74070;50.948;6.954;2023-12-28T14:24:03;12.20;99.90
84008;DHT22;74070;50.948;6.954;2023-12-28T14:26:31;12.10;99.90
84008;DHT22;74070;50.948;6.954;2023-12-28T14:28:58;12.00;99.90
84008;DHT22;74070;50.948;6.954;2023-12-28T14:31:25;12.00;99.90
84008;DHT22;74070;50.948;6.954;2023-12-28T14:33:52;12.00;99.90
84008;DHT22;74070;50.948;6.954;2023-12-28T14:36:27;11.90;99.90
84008;DHT22;74070;50.948;6.954;2023-12-28T14:38:50;11.90;99.90
84008;DHT22;74070;50.948;6.954;2023-12-28T14:41:16;11.90;99.90
84008;DHT22;74070;50.948;6.954;2023-12-28T14:43:43;11.80;99.90
84008;DHT22;74070;50.948;6.954;2023-12-28T14:46:10;11.80;99.90
84008;DHT22;74070;50.948;6.954;2023-12-28T14:48:38;11.70;99.90
84008;DHT22;74070;50.948;6.954;2023-12-28T14:51:05;11.70;99.90
84008;DHT22;74070;50.948;6.954;2023-12-28T14:53:32;11.70;99.90
84008;DHT22;74070;50.948;6.954;2023-12-28T14:55:59;11.60;99.90
84008;DHT22;74070;50.948;6.954;2023-12-28T14:58:26;11.60;99.90
84008;DHT22;74070;50.948;6.954;2023-12-28T15:00:52;11.60;99.90
84008;DHT22;74070;50.948;6.954;2023-12-28T15:03:19;11.50;99.90
84008;DHT22;74070;50.948;6.954;2023-12-28T15:05:45;11.40;99.90
84008;DHT22;74070;50.948;6.954;2023-12-28T15:08:12;11.40;99.90
84008;DHT22;74070;50.948;6.954;2023-12-28T15:10:39;11.30;99.90
84008;DHT22;74070;50.948;6.954;2023-12-28T15:13:06;11.20;99.90
84008;DHT22;74070;50.948;6.954;2023-12-28T15:15:32;11.10;99.90
84008;DHT22;74070;50.948;6.954;2023-12-28T15:17:59;11.10;99.90
84008;DHT22;74070;50.948;6.954;2023-12-28T15:20:26;11.10;99.90
84008;DHT22;74070;50.948;6.954;2023-12-28T15:22:54;11.00;99.90
84008;DHT22;74070;50.948;6.954;2023-12-28T15:25:20;10.90;99.90
84008;DHT22;74070;50.948;6.954;2023-12-28T15:27:48;10.80;99.90
84008;DHT22;74070;50.948;6.954;2023-12-28T15:30:15;10.80;99.90
84008;DHT22;74070;50.948;6.954;2023-12-28T15:32:42;10.80;99.90
84008;DHT22;74070;50.948;6.954;2023-12-28T15:35:12;10.80;99.90